sensor_id;sensor_type;location;lat;lon;timestamp;P1;durP1;ratioP1;P2;durP2;ratioP2
15271;SDS011;7737;51.578;7.268;2022-11-15T00:00:43;8.63;;;7.40;;
15271;SDS011;7737;51.578;7.268;2022-11-15T00:03:09;9.68;;;7.68;;
15271;SDS011;7737;51.578;7.268;2022-11-15T00:05:36;7.35;;;6.65;;
15271;SDS011;7737;51.578;7.268;2022-11-15T00:08:04;7.72;;;6.93;;
15271;SDS011;7737;51.578;7.268;2022-11-15T00:10:30;8.18;;;7.07;;
15271;SDS011;7737;51.578;7.268;2022-11-15T00:12:57;8.18;;;7.13;;
15271;SDS011;7737;51.578;7.268;2022-11-15T00:15:23;7.93;;;7.13;;
15271;SDS011;7737;51.578;7.268;2022-11-15T00:17:50;7.85;;;7.07;;
15271;SDS011;7737;51.578;7.268;2022-11-15T00:20:17;7.90;;;7.07;;
15271;SDS011;7737;51.578;7.268;2022-11-15T00:22:43;8.93;;;7.10;;
15271;SDS011;7737;51.578;7.268;2022-11-15T00:25:11;7.22;;;6.53;;
15271;SDS011;7737;51.578;7.268;2022-11-15T00:27:38;9.20;;;6.53;;
15271;SDS011;7737;51.578;7.268;2022-11-15T00:30:05;7.53;;;6.63;;
15271;SDS011;7737;51.578;7.268;2022-11-15T00:32:32;7.82;;;6.57;;
15271;SDS011;7737;51.578;7.268;2022-11-15T00:34:58;7.60;;;6.40;;
15271;SDS011;7737;51.578;7.268;2022-11-15T00:37:25;7.93;;;6.60;;
15271;SDS011;7737;51.578;7.268;2022-11-15T00:39:51;7.10;;;6.38;;
15271;SDS011;7737;51.578;7.268;2022-11-15T00:42:19;8.88;;;6.28;;
15271;SDS011;7737;51.578;7.268;2022-11-15T00:44:46;7.93;;;7.00;;
15271;SDS011;7737;51.578;7.268;2022-11-15T00:47:12;7.95;;;6.30;;
15271;SDS011;7737;51.578;7.268;2022-11-15T00:49:39;8.13;;;6.45;;
15271;SDS011;7737;51.578;7.268;2022-11-15T00:52:06;9.30;;;6.90;;
15271;SDS011;7737;51.578;7.268;2022-11-15T00:54:32;8.63;;;6.50;;
15271;SDS011;7737;51.578;7.268;2022-11-15T00:56:59;8.73;;;6.60;;
15271;SDS011;7737;51.578;7.268;2022-11-15T00:59:26;7.88;;;6.50;;
15271;SDS011;7737;51.578;7.268;2022-11-15T01:01:53;7.93;;;5.97;;
15271;SDS011;7737;51.578;7.268;2022-11-15T01:04:20;9.38;;;6.88;;
15271;SDS011;7737;51.578;7.268;2022-11-15T01:06:46;7.13;;;6.03;;
15271;SDS011;7737;51.578;7.268;2022-11-15T01:09:13;7.05;;;6.35;;
15271;SDS011;7737;51.578;7.268;2022-11-15T01:11:39;8.10;;;6.53;;
15271;SDS011;7737;51.578;7.268;2022-11-15T01:14:06;8.32;;;6.50;;
15271;SDS011;7737;51.578;7.268;2022-11-15T01:16:34;7.25;;;6.20;;
15271;SDS011;7737;51.578;7.268;2022-11-15T01:19:00;6.97;;;6.28;;
15271;SDS011;7737;51.578;7.268;2022-11-15T01:21:27;6.65;;;5.82;;
15271;SDS011;7737;51.578;7.268;2022-11-15T01:23:54;8.30;;;6.15;;
15271;SDS011;7737;51.578;7.268;2022-11-15T01:26:21;8.95;;;6.38;;
15271;SDS011;7737;51.578;7.268;2022-11-15T01:28:48;9.15;;;6.30;;
15271;SDS011;7737;51.578;7.268;2022-11-15T01:31:16;6.82;;;6.03;;
15271;SDS011;7737;51.578;7.268;2022-11-15T01:33:45;6.47;;;5.88;;
15271;SDS011;7737;51.578;7.268;2022-11-15T01:36:14;8.35;;;6.00;;
15271;SDS011;7737;51.578;7.268;2022-11-15T01:38:41;8.13;;;5.97;;
15271;SDS011;7737;51.578;7.268;2022-11-15T01:41:13;7.70;;;6.63;;
15271;SDS011;7737;51.578;7.268;2022-11-15T01:43:42;6.95;;;5.90;;
15271;SDS011;7737;51.578;7.268;2022-11-15T01:46:14;7.25;;;5.78;;
15271;SDS011;7737;51.578;7.268;2022-11-15T01:48:51;7.32;;;5.35;;
15271;SDS011;7737;51.578;7.268;2022-11-15T01:51:20;6.45;;;5.82;;
15271;SDS011;7737;51.578;7.268;2022-11-15T01:53:50;7.05;;;6.00;;
15271;SDS011;7737;51.578;7.268;2022-11-15T01:56:21;7.57;;;5.72;;
15271;SDS011;7737;51.578;7.268;2022-11-15T01:58:51;6.32;;;5.65;;
15271;SDS011;7737;51.578;7.268;2022-11-15T02:01:20;8.35;;;5.45;;
15271;SDS011;7737;51.578;7.268;2022-11-15T02:03:48;7.00;;;5.43;;
15271;SDS011;7737;51.578;7.268;2022-11-15T02:06:18;7.28;;;5.85;;
15271;SDS011;7737;51.578;7.268;2022-11-15T02:08:47;7.90;;;5.63;;
15271;SDS011;7737;51.578;7.268;2022-11-15T02:11:14;7.18;;;5.88;;
15271;SDS011;7737;51.578;7.268;2022-11-15T02:13:40;7.90;;;6.15;;
15271;SDS011;7737;51.578;7.268;2022-11-15T02:16:09;7.28;;;6.28;;
15271;SDS011;7737;51.578;7.268;2022-11-15T02:18:44;7.05;;;5.85;;
15271;SDS011;7737;51.578;7.268;2022-11-15T02:21:21;7.78;;;6.25;;
15271;SDS011;7737;51.578;7.268;2022-11-15T02:27:12;7.57;;;5.68;;
15271;SDS011;7737;51.578;7.268;2022-11-15T02:30:01;6.43;;;5.82;;
15271;SDS011;7737;51.578;7.268;2022-11-15T02:32:34;7.43;;;5.75;;
15271;SDS011;7737;51.578;7.268;2022-11-15T02:35:09;5.85;;;5.20;;
15271;SDS011;7737;51.578;7.268;2022-11-15T02:37:42;6.57;;;5.40;;
15271;SDS011;7737;51.578;7.268;2022-11-15T02:40:16;6.13;;;5.50;;
15271;SDS011;7737;51.578;7.268;2022-11-15T02:42:53;7.43;;;5.50;;
15271;SDS011;7737;51.578;7.268;2022-11-15T02:45:41;6.90;;;5.20;;
15271;SDS011;7737;51.578;7.268;2022-11-15T02:48:15;6.95;;;5.35;;
15271;SDS011;7737;51.578;7.268;2022-11-15T02:50:43;7.22;;;5.65;;
15271;SDS011;7737;51.578;7.268;2022-11-15T02:53:11;7.43;;;5.60;;
15271;SDS011;7737;51.578;7.268;2022-11-15T02:55:41;5.70;;;4.82;;
15271;SDS011;7737;51.578;7.268;2022-11-15T02:58:20;8.90;;;5.60;;
15271;SDS011;7737;51.578;7.268;2022-11-15T03:00:58;7.53;;;5.25;;
15271;SDS011;7737;51.578;7.268;2022-11-15T03:03:38;5.47;;;4.97;;
15271;SDS011;7737;51.578;7.268;2022-11-15T03:06:19;6.97;;;5.53;;
15271;SDS011;7737;51.578;7.268;2022-11-15T03:08:55;7.90;;;5.47;;
15271;SDS011;7737;51.578;7.268;2022-11-15T03:11:31;8.48;;;5.20;;
15271;SDS011;7737;51.578;7.268;2022-11-15T03:14:02;7.88;;;5.35;;
15271;SDS011;7737;51.578;7.268;2022-11-15T03:16:36;5.93;;;5.32;;
15271;SDS011;7737;51.578;7.268;2022-11-15T03:19:09;6.95;;;5.35;;
15271;SDS011;7737;51.578;7.268;2022-11-15T03:21:40;6.95;;;5.60;;
15271;SDS011;7737;51.578;7.268;2022-11-15T03:24:07;7.30;;;5.68;;
15271;SDS011;7737;51.578;7.268;2022-11-15T03:26:35;6.95;;;5.78;;
15271;SDS011;7737;51.578;7.268;2022-11-15T03:29:06;9.55;;;5.70;;
15271;SDS011;7737;51.578;7.268;2022-11-15T03:31:39;7.47;;;5.47;;
15271;SDS011;7737;51.578;7.268;2022-11-15T03:34:15;9.23;;;6.20;;
15271;SDS011;7737;51.578;7.268;2022-11-15T03:36:48;9.25;;;6.43;;
15271;SDS011;7737;51.578;7.268;2022-11-15T03:39:18;6.90;;;5.80;;
15271;SDS011;7737;51.578;7.268;2022-11-15T03:41:47;10.23;;;6.35;;
15271;SDS011;7737;51.578;7.268;2022-11-15T03:44:19;9.45;;;6.30;;
15271;SDS011;7737;51.578;7.268;2022-11-15T03:46:55;7.13;;;5.75;;
15271;SDS011;7737;51.578;7.268;2022-11-15T03:49:29;7.80;;;6.13;;
15271;SDS011;7737;51.578;7.268;2022-11-15T03:51:59;7.68;;;5.82;;
15271;SDS011;7737;51.578;7.268;2022-11-15T03:54:26;8.77;;;6.20;;
15271;SDS011;7737;51.578;7.268;2022-11-15T03:56:53;8.65;;;5.95;;
15271;SDS011;7737;51.578;7.268;2022-11-15T03:59:20;6.88;;;6.18;;
15271;SDS011;7737;51.578;7.268;2022-11-15T04:01:46;7.88;;;6.10;;
15271;SDS011;7737;51.578;7.268;2022-11-15T04:04:13;6.70;;;6.05;;
15271;SDS011;7737;51.578;7.268;2022-11-15T04:06:41;6.65;;;6.05;;
15271;SDS011;7737;51.578;7.268;2022-11-15T04:09:08;6.43;;;5.82;;
15271;SDS011;7737;51.578;7.268;2022-11-15T04:11:34;8.63;;;6.15;;
15271;SDS011;7737;51.578;7.268;2022-11-15T04:14:01;7.40;;;5.78;;
15271;SDS011;7737;51.578;7.268;2022-11-15T04:16:27;6.90;;;5.97;;
15271;SDS011;7737;51.578;7.268;2022-11-15T04:18:54;6.60;;;5.90;;
15271;SDS011;7737;51.578;7.268;2022-11-15T04:21:34;8.50;;;6.25;;
15271;SDS011;7737;51.578;7.268;2022-11-15T04:24:19;8.07;;;5.93;;
15271;SDS011;7737;51.578;7.268;2022-11-15T04:26:46;7.03;;;6.20;;
15271;SDS011;7737;51.578;7.268;2022-11-15T04:29:12;10.60;;;5.88;;
15271;SDS011;7737;51.578;7.268;2022-11-15T04:31:57;6.80;;;5.82;;
15271;SDS011;7737;51.578;7.268;2022-11-15T04:34:23;6.65;;;5.93;;
15271;SDS011;7737;51.578;7.268;2022-11-15T04:36:50;8.15;;;5.68;;
15271;SDS011;7737;51.578;7.268;2022-11-15T04:39:35;6.28;;;5.60;;
15271;SDS011;7737;51.578;7.268;2022-11-15T04:42:02;6.82;;;5.65;;
15271;SDS011;7737;51.578;7.268;2022-11-15T04:44:28;8.70;;;5.82;;
15271;SDS011;7737;51.578;7.268;2022-11-15T04:46:55;6.10;;;5.60;;
15271;SDS011;7737;51.578;7.268;2022-11-15T04:49:22;7.70;;;5.60;;
15271;SDS011;7737;51.578;7.268;2022-11-15T04:51:49;5.88;;;5.38;;
15271;SDS011;7737;51.578;7.268;2022-11-15T04:54:15;6.32;;;5.70;;
15271;SDS011;7737;51.578;7.268;2022-11-15T04:56:44;5.65;;;5.15;;
15271;SDS011;7737;51.578;7.268;2022-11-15T04:59:10;7.03;;;5.78;;
15271;SDS011;7737;51.578;7.268;2022-11-15T05:01:37;6.53;;;5.43;;
15271;SDS011;7737;51.578;7.268;2022-11-15T05:04:03;6.72;;;5.28;;
15271;SDS011;7737;51.578;7.268;2022-11-15T05:06:45;6.60;;;5.85;;
15271;SDS011;7737;51.578;7.268;2022-11-15T05:09:12;6.15;;;5.55;;
15271;SDS011;7737;51.578;7.268;2022-11-15T05:11:39;6.53;;;5.88;;
15271;SDS011;7737;51.578;7.268;2022-11-15T05:14:07;7.20;;;5.72;;
15271;SDS011;7737;51.578;7.268;2022-11-15T05:16:33;6.28;;;5.60;;
15271;SDS011;7737;51.578;7.268;2022-11-15T05:19:00;6.20;;;5.60;;
15271;SDS011;7737;51.578;7.268;2022-11-15T05:21:27;7.05;;;5.45;;
15271;SDS011;7737;51.578;7.268;2022-11-15T05:23:53;6.03;;;5.43;;
15271;SDS011;7737;51.578;7.268;2022-11-15T05:26:20;6.30;;;5.63;;
15271;SDS011;7737;51.578;7.268;2022-11-15T05:28:51;6.13;;;5.53;;
15271;SDS011;7737;51.578;7.268;2022-11-15T05:31:19;6.20;;;5.68;;
15271;SDS011;7737;51.578;7.268;2022-11-15T05:33:47;7.00;;;5.63;;
15271;SDS011;7737;51.578;7.268;2022-11-15T05:36:17;6.30;;;5.80;;
15271;SDS011;7737;51.578;7.268;2022-11-15T05:38:48;6.20;;;5.60;;
15271;SDS011;7737;51.578;7.268;2022-11-15T05:41:15;6.80;;;5.95;;
15271;SDS011;7737;51.578;7.268;2022-11-15T05:43:45;6.80;;;6.10;;
15271;SDS011;7737;51.578;7.268;2022-11-15T05:46:14;6.60;;;6.00;;
15271;SDS011;7737;51.578;7.268;2022-11-15T05:48:43;6.38;;;5.78;;
15271;SDS011;7737;51.578;7.268;2022-11-15T05:51:12;6.63;;;6.03;;
15271;SDS011;7737;51.578;7.268;2022-11-15T05:53:41;6.38;;;5.78;;
15271;SDS011;7737;51.578;7.268;2022-11-15T05:56:08;6.63;;;5.97;;
15271;SDS011;7737;51.578;7.268;2022-11-15T05:58:35;6.30;;;5.70;;
15271;SDS011;7737;51.578;7.268;2022-11-15T06:01:03;6.10;;;5.55;;
15271;SDS011;7737;51.578;7.268;2022-11-15T06:03:30;6.53;;;5.93;;
15271;SDS011;7737;51.578;7.268;2022-11-15T06:05:58;6.43;;;5.68;;
15271;SDS011;7737;51.578;7.268;2022-11-15T06:08:25;6.25;;;5.65;;
15271;SDS011;7737;51.578;7.268;2022-11-15T06:10:51;6.72;;;6.13;;
15271;SDS011;7737;51.578;7.268;2022-11-15T06:13:17;7.45;;;6.60;;
15271;SDS011;7737;51.578;7.268;2022-11-15T06:15:44;9.40;;;8.40;;
15271;SDS011;7737;51.578;7.268;2022-11-15T06:18:11;7.30;;;6.60;;
15271;SDS011;7737;51.578;7.268;2022-11-15T06:20:37;11.85;;;9.32;;
15271;SDS011;7737;51.578;7.268;2022-11-15T06:23:05;6.82;;;6.18;;
15271;SDS011;7737;51.578;7.268;2022-11-15T06:25:32;7.68;;;6.97;;
15271;SDS011;7737;51.578;7.268;2022-11-15T06:27:58;7.47;;;6.78;;
15271;SDS011;7737;51.578;7.268;2022-11-15T06:30:25;6.97;;;6.28;;
15271;SDS011;7737;51.578;7.268;2022-11-15T06:32:58;7.13;;;6.45;;
15271;SDS011;7737;51.578;7.268;2022-11-15T06:35:26;6.60;;;5.93;;
15271;SDS011;7737;51.578;7.268;2022-11-15T06:37:53;7.03;;;6.10;;
15271;SDS011;7737;51.578;7.268;2022-11-15T06:40:21;6.63;;;6.03;;
15271;SDS011;7737;51.578;7.268;2022-11-15T06:42:47;6.20;;;5.65;;
15271;SDS011;7737;51.578;7.268;2022-11-15T06:45:14;5.97;;;5.47;;
15271;SDS011;7737;51.578;7.268;2022-11-15T06:47:44;6.15;;;5.55;;
15271;SDS011;7737;51.578;7.268;2022-11-15T06:50:11;6.22;;;5.72;;
15271;SDS011;7737;51.578;7.268;2022-11-15T06:52:38;6.07;;;5.47;;
15271;SDS011;7737;51.578;7.268;2022-11-15T06:55:04;5.60;;;4.97;;
15271;SDS011;7737;51.578;7.268;2022-11-15T06:57:33;5.57;;;5.05;;
15271;SDS011;7737;51.578;7.268;2022-11-15T07:00:00;5.03;;;4.63;;
15271;SDS011;7737;51.578;7.268;2022-11-15T07:02:26;4.97;;;4.47;;
15271;SDS011;7737;51.578;7.268;2022-11-15T07:04:53;4.80;;;4.38;;
15271;SDS011;7737;51.578;7.268;2022-11-15T07:07:19;4.53;;;4.13;;
15271;SDS011;7737;51.578;7.268;2022-11-15T07:09:46;4.45;;;3.90;;
15271;SDS011;7737;51.578;7.268;2022-11-15T07:12:12;4.53;;;4.13;;
15271;SDS011;7737;51.578;7.268;2022-11-15T07:14:40;5.00;;;3.60;;
15271;SDS011;7737;51.578;7.268;2022-11-15T07:17:07;3.97;;;3.22;;
15271;SDS011;7737;51.578;7.268;2022-11-15T07:19:33;4.07;;;3.55;;
15271;SDS011;7737;51.578;7.268;2022-11-15T07:22:00;3.78;;;3.22;;
15271;SDS011;7737;51.578;7.268;2022-11-15T07:24:26;3.35;;;3.05;;
15271;SDS011;7737;51.578;7.268;2022-11-15T07:26:52;3.17;;;2.72;;
15271;SDS011;7737;51.578;7.268;2022-11-15T07:29:19;3.40;;;3.10;;
15271;SDS011;7737;51.578;7.268;2022-11-15T07:31:47;5.40;;;4.90;;
15271;SDS011;7737;51.578;7.268;2022-11-15T07:34:13;5.78;;;4.40;;
15271;SDS011;7737;51.578;7.268;2022-11-15T07:36:40;4.18;;;2.65;;
15271;SDS011;7737;51.578;7.268;2022-11-15T07:39:06;3.38;;;3.08;;
15271;SDS011;7737;51.578;7.268;2022-11-15T07:41:33;3.50;;;3.20;;
15271;SDS011;7737;51.578;7.268;2022-11-15T07:44:00;7.28;;;5.30;;
15271;SDS011;7737;51.578;7.268;2022-11-15T07:46:26;3.40;;;3.10;;
15271;SDS011;7737;51.578;7.268;2022-11-15T07:48:54;3.80;;;2.65;;
15271;SDS011;7737;51.578;7.268;2022-11-15T07:51:21;2.92;;;2.00;;
15271;SDS011;7737;51.578;7.268;2022-11-15T07:53:47;2.88;;;2.17;;
15271;SDS011;7737;51.578;7.268;2022-11-15T07:56:14;2.92;;;2.08;;
15271;SDS011;7737;51.578;7.268;2022-11-15T07:58:40;2.20;;;2.00;;
15271;SDS011;7737;51.578;7.268;2022-11-15T08:01:08;2.05;;;1.85;;
15271;SDS011;7737;51.578;7.268;2022-11-15T08:03:36;2.08;;;1.70;;
15271;SDS011;7737;51.578;7.268;2022-11-15T08:06:04;2.20;;;2.00;;
15271;SDS011;7737;51.578;7.268;2022-11-15T08:08:31;2.08;;;1.70;;
15271;SDS011;7737;51.578;7.268;2022-11-15T08:10:58;2.30;;;2.10;;
15271;SDS011;7737;51.578;7.268;2022-11-15T08:13:24;2.03;;;1.80;;
15271;SDS011;7737;51.578;7.268;2022-11-15T08:15:51;2.25;;;1.95;;
15271;SDS011;7737;51.578;7.268;2022-11-15T08:18:17;2.42;;;1.90;;
15271;SDS011;7737;51.578;7.268;2022-11-15T08:20:44;2.40;;;1.88;;
15271;SDS011;7737;51.578;7.268;2022-11-15T08:23:12;1.90;;;1.80;;
15271;SDS011;7737;51.578;7.268;2022-11-15T08:25:38;2.38;;;1.90;;
15271;SDS011;7737;51.578;7.268;2022-11-15T08:28:06;2.30;;;1.92;;
15271;SDS011;7737;51.578;7.268;2022-11-15T08:30:34;2.10;;;1.90;;
15271;SDS011;7737;51.578;7.268;2022-11-15T08:33:03;2.45;;;1.48;;
15271;SDS011;7737;51.578;7.268;2022-11-15T08:35:29;2.83;;;1.90;;
15271;SDS011;7737;51.578;7.268;2022-11-15T08:37:56;2.60;;;1.92;;
15271;SDS011;7737;51.578;7.268;2022-11-15T08:40:24;1.90;;;1.65;;
15271;SDS011;7737;51.578;7.268;2022-11-15T08:42:52;2.10;;;1.70;;
15271;SDS011;7737;51.578;7.268;2022-11-15T08:45:18;1.70;;;1.60;;
15271;SDS011;7737;51.578;7.268;2022-11-15T08:47:45;2.03;;;1.70;;
15271;SDS011;7737;51.578;7.268;2022-11-15T08:50:11;3.35;;;1.80;;
15271;SDS011;7737;51.578;7.268;2022-11-15T08:52:38;1.60;;;1.45;;
15271;SDS011;7737;51.578;7.268;2022-11-15T08:55:05;2.03;;;1.60;;
15271;SDS011;7737;51.578;7.268;2022-11-15T08:57:33;1.73;;;1.55;;
15271;SDS011;7737;51.578;7.268;2022-11-15T09:00:00;1.67;;;1.58;;
15271;SDS011;7737;51.578;7.268;2022-11-15T09:02:27;2.50;;;1.75;;
15271;SDS011;7737;51.578;7.268;2022-11-15T09:04:53;1.83;;;1.60;;
15271;SDS011;7737;51.578;7.268;2022-11-15T09:07:19;2.50;;;1.63;;
15271;SDS011;7737;51.578;7.268;2022-11-15T09:09:46;3.15;;;1.60;;
15271;SDS011;7737;51.578;7.268;2022-11-15T09:12:12;1.50;;;1.40;;
15271;SDS011;7737;51.578;7.268;2022-11-15T09:14:40;2.28;;;1.70;;
15271;SDS011;7737;51.578;7.268;2022-11-15T09:17:07;3.53;;;1.80;;
15271;SDS011;7737;51.578;7.268;2022-11-15T09:19:34;3.10;;;1.52;;
15271;SDS011;7737;51.578;7.268;2022-11-15T09:22:01;1.60;;;1.25;;
15271;SDS011;7737;51.578;7.268;2022-11-15T09:24:31;1.90;;;1.48;;
15271;SDS011;7737;51.578;7.268;2022-11-15T09:26:57;3.10;;;1.42;;
15271;SDS011;7737;51.578;7.268;2022-11-15T09:29:24;1.60;;;1.38;;
15271;SDS011;7737;51.578;7.268;2022-11-15T09:31:52;2.78;;;1.58;;
15271;SDS011;7737;51.578;7.268;2022-11-15T09:34:19;2.28;;;1.20;;
15271;SDS011;7737;51.578;7.268;2022-11-15T09:36:46;2.15;;;1.25;;
15271;SDS011;7737;51.578;7.268;2022-11-15T09:39:12;1.83;;;1.23;;
15271;SDS011;7737;51.578;7.268;2022-11-15T09:41:48;1.55;;;1.20;;
15271;SDS011;7737;51.578;7.268;2022-11-15T09:47:15;2.22;;;1.17;;
15271;SDS011;7737;51.578;7.268;2022-11-15T09:49:56;1.75;;;1.10;;
15271;SDS011;7737;51.578;7.268;2022-11-15T09:52:25;2.72;;;1.15;;
15271;SDS011;7737;51.578;7.268;2022-11-15T09:54:52;3.10;;;1.15;;
15271;SDS011;7737;51.578;7.268;2022-11-15T09:57:21;1.63;;;1.05;;
15271;SDS011;7737;51.578;7.268;2022-11-15T09:59:59;3.05;;;1.15;;
15271;SDS011;7737;51.578;7.268;2022-11-15T10:02:41;2.75;;;1.17;;
15271;SDS011;7737;51.578;7.268;2022-11-15T10:05:16;1.10;;;0.90;;
15271;SDS011;7737;51.578;7.268;2022-11-15T10:07:47;3.22;;;1.25;;
15271;SDS011;7737;51.578;7.268;2022-11-15T10:10:22;2.70;;;1.20;;
15271;SDS011;7737;51.578;7.268;2022-11-15T10:12:53;1.77;;;1.10;;
15271;SDS011;7737;51.578;7.268;2022-11-15T10:15:20;3.08;;;0.90;;
15271;SDS011;7737;51.578;7.268;2022-11-15T10:20:42;2.88;;;1.10;;
15271;SDS011;7737;51.578;7.268;2022-11-15T10:23:14;2.13;;;1.23;;
15271;SDS011;7737;51.578;7.268;2022-11-15T10:25:43;1.92;;;1.00;;
15271;SDS011;7737;51.578;7.268;2022-11-15T10:28:12;1.95;;;0.82;;
15271;SDS011;7737;51.578;7.268;2022-11-15T10:30:42;2.40;;;0.90;;
15271;SDS011;7737;51.578;7.268;2022-11-15T10:33:17;2.95;;;0.93;;
15271;SDS011;7737;51.578;7.268;2022-11-15T10:35:48;1.90;;;0.93;;
15271;SDS011;7737;51.578;7.268;2022-11-15T10:38:42;1.80;;;0.90;;
15271;SDS011;7737;51.578;7.268;2022-11-15T10:41:18;3.00;;;0.80;;
15271;SDS011;7737;51.578;7.268;2022-11-15T10:43:46;1.25;;;0.70;;
15271;SDS011;7737;51.578;7.268;2022-11-15T10:46:28;1.02;;;0.88;;
15271;SDS011;7737;51.578;7.268;2022-11-15T10:48:59;2.03;;;0.77;;
15271;SDS011;7737;51.578;7.268;2022-11-15T10:51:41;1.60;;;0.80;;
15271;SDS011;7737;51.578;7.268;2022-11-15T10:54:12;2.53;;;0.85;;
15271;SDS011;7737;51.578;7.268;2022-11-15T10:56:41;1.92;;;0.75;;
15271;SDS011;7737;51.578;7.268;2022-11-15T10:59:14;1.67;;;0.88;;
15271;SDS011;7737;51.578;7.268;2022-11-15T11:01:47;1.58;;;0.90;;
15271;SDS011;7737;51.578;7.268;2022-11-15T11:04:15;1.33;;;0.90;;
15271;SDS011;7737;51.578;7.268;2022-11-15T11:06:46;3.40;;;0.77;;
15271;SDS011;7737;51.578;7.268;2022-11-15T11:09:21;1.48;;;0.90;;
15271;SDS011;7737;51.578;7.268;2022-11-15T11:11:51;2.10;;;1.00;;
15271;SDS011;7737;51.578;7.268;2022-11-15T11:14:20;3.55;;;1.40;;
15271;SDS011;7737;51.578;7.268;2022-11-15T11:16:49;2.08;;;1.00;;
15271;SDS011;7737;51.578;7.268;2022-11-15T11:19:28;2.72;;;0.80;;
15271;SDS011;7737;51.578;7.268;2022-11-15T11:22:16;1.42;;;0.93;;
15271;SDS011;7737;51.578;7.268;2022-11-15T11:24:48;1.13;;;0.82;;
15271;SDS011;7737;51.578;7.268;2022-11-15T11:27:26;1.98;;;0.70;;
15271;SDS011;7737;51.578;7.268;2022-11-15T11:30:03;2.15;;;0.77;;
15271;SDS011;7737;51.578;7.268;2022-11-15T11:32:40;2.78;;;1.00;;
15271;SDS011;7737;51.578;7.268;2022-11-15T11:35:20;2.13;;;0.90;;
15271;SDS011;7737;51.578;7.268;2022-11-15T11:37:51;3.25;;;0.90;;
15271;SDS011;7737;51.578;7.268;2022-11-15T11:40:24;1.05;;;0.80;;
15271;SDS011;7737;51.578;7.268;2022-11-15T11:42:56;1.52;;;0.70;;
15271;SDS011;7737;51.578;7.268;2022-11-15T11:48:22;1.25;;;0.73;;
15271;SDS011;7737;51.578;7.268;2022-11-15T11:51:03;2.90;;;1.20;;
15271;SDS011;7737;51.578;7.268;2022-11-15T11:53:37;2.20;;;0.90;;
15271;SDS011;7737;51.578;7.268;2022-11-15T11:56:14;1.20;;;0.70;;
15271;SDS011;7737;51.578;7.268;2022-11-15T11:58:48;1.38;;;0.70;;
15271;SDS011;7737;51.578;7.268;2022-11-15T12:01:17;1.05;;;0.70;;
15271;SDS011;7737;51.578;7.268;2022-11-15T12:03:50;1.58;;;0.90;;
15271;SDS011;7737;51.578;7.268;2022-11-15T12:06:27;1.50;;;0.75;;
15271;SDS011;7737;51.578;7.268;2022-11-15T12:08:59;1.40;;;0.65;;
15271;SDS011;7737;51.578;7.268;2022-11-15T12:11:34;2.45;;;0.90;;
15271;SDS011;7737;51.578;7.268;2022-11-15T12:14:05;3.58;;;1.10;;
15271;SDS011;7737;51.578;7.268;2022-11-15T12:16:42;1.45;;;1.00;;
15271;SDS011;7737;51.578;7.268;2022-11-15T12:19:09;3.22;;;1.13;;
15271;SDS011;7737;51.578;7.268;2022-11-15T12:21:39;1.63;;;0.80;;
15271;SDS011;7737;51.578;7.268;2022-11-15T12:24:12;2.55;;;1.08;;
15271;SDS011;7737;51.578;7.268;2022-11-15T12:26:52;2.13;;;1.00;;
15271;SDS011;7737;51.578;7.268;2022-11-15T12:32:14;1.15;;;0.70;;
15271;SDS011;7737;51.578;7.268;2022-11-15T12:34:49;1.15;;;0.63;;
15271;SDS011;7737;51.578;7.268;2022-11-15T12:40:33;2.38;;;1.20;;
15271;SDS011;7737;51.578;7.268;2022-11-15T12:46:01;2.05;;;0.80;;
15271;SDS011;7737;51.578;7.268;2022-11-15T12:48:47;1.50;;;0.90;;
15271;SDS011;7737;51.578;7.268;2022-11-15T12:51:16;2.40;;;0.70;;
15271;SDS011;7737;51.578;7.268;2022-11-15T12:53:43;1.27;;;0.80;;
15271;SDS011;7737;51.578;7.268;2022-11-15T12:56:19;1.23;;;0.70;;
15271;SDS011;7737;51.578;7.268;2022-11-15T12:58:48;1.90;;;0.60;;
15271;SDS011;7737;51.578;7.268;2022-11-15T13:04:32;1.50;;;0.90;;
15271;SDS011;7737;51.578;7.268;2022-11-15T13:07:00;2.13;;;0.70;;
15271;SDS011;7737;51.578;7.268;2022-11-15T13:15:34;2.30;;;1.10;;
15271;SDS011;7737;51.578;7.268;2022-11-15T13:18:32;2.53;;;1.60;;
15271;SDS011;7737;51.578;7.268;2022-11-15T13:21:02;2.33;;;1.20;;
15271;SDS011;7737;51.578;7.268;2022-11-15T13:23:53;2.60;;;0.80;;
15271;SDS011;7737;51.578;7.268;2022-11-15T13:26:20;3.17;;;1.08;;
15271;SDS011;7737;51.578;7.268;2022-11-15T13:28:49;1.48;;;0.90;;
15271;SDS011;7737;51.578;7.268;2022-11-15T13:31:22;2.15;;;0.75;;
15271;SDS011;7737;51.578;7.268;2022-11-15T13:33:51;1.65;;;0.70;;
15271;SDS011;7737;51.578;7.268;2022-11-15T13:36:20;3.35;;;0.90;;
15271;SDS011;7737;51.578;7.268;2022-11-15T13:38:55;1.48;;;0.82;;
15271;SDS011;7737;51.578;7.268;2022-11-15T13:41:24;2.00;;;0.80;;
15271;SDS011;7737;51.578;7.268;2022-11-15T13:43:54;1.95;;;0.70;;
15271;SDS011;7737;51.578;7.268;2022-11-15T13:46:23;1.67;;;0.60;;
15271;SDS011;7737;51.578;7.268;2022-11-15T13:48:52;1.73;;;0.65;;
15271;SDS011;7737;51.578;7.268;2022-11-15T13:51:21;2.78;;;0.70;;
15271;SDS011;7737;51.578;7.268;2022-11-15T13:53:54;1.58;;;0.70;;
15271;SDS011;7737;51.578;7.268;2022-11-15T13:56:24;2.88;;;0.80;;
15271;SDS011;7737;51.578;7.268;2022-11-15T13:58:54;2.05;;;0.52;;
15271;SDS011;7737;51.578;7.268;2022-11-15T14:01:21;1.58;;;0.80;;
15271;SDS011;7737;51.578;7.268;2022-11-15T14:03:53;4.25;;;0.90;;
15271;SDS011;7737;51.578;7.268;2022-11-15T14:06:23;1.23;;;0.75;;
15271;SDS011;7737;51.578;7.268;2022-11-15T14:09:04;2.55;;;0.80;;
15271;SDS011;7737;51.578;7.268;2022-11-15T14:14:51;1.88;;;0.90;;
15271;SDS011;7737;51.578;7.268;2022-11-15T14:17:19;1.77;;;0.80;;
15271;SDS011;7737;51.578;7.268;2022-11-15T14:19:48;2.15;;;0.73;;
15271;SDS011;7737;51.578;7.268;2022-11-15T14:22:17;1.75;;;0.80;;
15271;SDS011;7737;51.578;7.268;2022-11-15T14:24:47;1.60;;;0.75;;
15271;SDS011;7737;51.578;7.268;2022-11-15T14:27:31;2.92;;;1.30;;
15271;SDS011;7737;51.578;7.268;2022-11-15T14:30:00;2.38;;;0.90;;
15271;SDS011;7737;51.578;7.268;2022-11-15T14:32:27;1.98;;;0.70;;
15271;SDS011;7737;51.578;7.268;2022-11-15T14:34:55;3.15;;;0.90;;
15271;SDS011;7737;51.578;7.268;2022-11-15T14:37:24;2.28;;;1.10;;
15271;SDS011;7737;51.578;7.268;2022-11-15T14:39:52;3.28;;;0.90;;
15271;SDS011;7737;51.578;7.268;2022-11-15T14:42:19;2.75;;;1.00;;
15271;SDS011;7737;51.578;7.268;2022-11-15T14:44:46;5.00;;;1.00;;
15271;SDS011;7737;51.578;7.268;2022-11-15T14:47:14;3.30;;;1.23;;
15271;SDS011;7737;51.578;7.268;2022-11-15T14:49:41;2.90;;;1.20;;
15271;SDS011;7737;51.578;7.268;2022-11-15T14:52:19;1.88;;;1.23;;
15271;SDS011;7737;51.578;7.268;2022-11-15T14:54:51;1.83;;;1.10;;
15271;SDS011;7737;51.578;7.268;2022-11-15T14:57:17;2.85;;;1.20;;
15271;SDS011;7737;51.578;7.268;2022-11-15T14:59:44;3.90;;;1.35;;
15271;SDS011;7737;51.578;7.268;2022-11-15T15:02:14;1.55;;;1.20;;
15271;SDS011;7737;51.578;7.268;2022-11-15T15:04:44;2.63;;;1.15;;
15271;SDS011;7737;51.578;7.268;2022-11-15T15:07:10;5.93;;;1.40;;
15271;SDS011;7737;51.578;7.268;2022-11-15T15:09:37;3.13;;;1.50;;
15271;SDS011;7737;51.578;7.268;2022-11-15T15:12:04;3.92;;;1.55;;
15271;SDS011;7737;51.578;7.268;2022-11-15T15:14:31;4.03;;;1.50;;
15271;SDS011;7737;51.578;7.268;2022-11-15T15:16:58;3.08;;;1.40;;
15271;SDS011;7737;51.578;7.268;2022-11-15T15:19:26;3.58;;;1.48;;
15271;SDS011;7737;51.578;7.268;2022-11-15T15:21:52;3.13;;;1.65;;
15271;SDS011;7737;51.578;7.268;2022-11-15T15:24:19;1.70;;;1.30;;
15271;SDS011;7737;51.578;7.268;2022-11-15T15:26:45;2.63;;;1.50;;
15271;SDS011;7737;51.578;7.268;2022-11-15T15:29:12;2.63;;;1.70;;
15271;SDS011;7737;51.578;7.268;2022-11-15T15:31:38;4.63;;;2.25;;
15271;SDS011;7737;51.578;7.268;2022-11-15T15:34:05;3.15;;;1.60;;
15271;SDS011;7737;51.578;7.268;2022-11-15T15:36:33;3.42;;;2.03;;
15271;SDS011;7737;51.578;7.268;2022-11-15T15:38:59;3.65;;;1.70;;
15271;SDS011;7737;51.578;7.268;2022-11-15T15:41:26;2.10;;;1.63;;
15271;SDS011;7737;51.578;7.268;2022-11-15T15:43:52;4.50;;;1.90;;
15271;SDS011;7737;51.578;7.268;2022-11-15T15:46:19;2.92;;;1.73;;
15271;SDS011;7737;51.578;7.268;2022-11-15T15:48:46;2.90;;;1.60;;